ADDS METAR Data INFO
IDs: Format: Raw Decoded Include TAF

Data at: 2104 UTC 22 Jun 2018

METAR for:GCLA (La Palma Arpt, --, CR)
Text:GCLA 222030Z AUTO 03012KT 9999 OVC023/// 21/16 Q1020
Temperature: 21.0°C ( 70°F)
Dewpoint: 16.0°C ( 61°F) [RH = 73%]
Pressure (altimeter):30.12 inches Hg (1020.0 mb)
Winds:from the NNE (30 degrees) at 14 MPH (12 knots; 6.2 m/s)
Visibility:6 or more sm (10+ km)
Ceiling:2300 feet AGL
Clouds: overcast cloud deck at 2300 feet AGL